Time;durP1;ratioP1;P1;durP2;ratioP2;P2;SDS_P1;SDS_P2;PMS_P1;PMS_P2;Temp;Humidity;BMP_temperature;BMP_pressure;BME280_temperature;BME280_humidity;BME280_pressure;Samples;Min_cycle;Max_cycle;Signal;HPM_P1;HPM_P2
2024/01/18 00:00:40;;;;;;;63.50;27.05;;;;;;;;;;5014414;28;20241;-55
2024/01/18 00:03:06;;;;;;;66.60;25.15;;;;;;;;;;5011844;28;20105;-53
2024/01/18 00:05:32;;;;;;;61.17;25.73;;;;;;;;;;5010853;28;20033;-55
2024/01/18 00:07:58;;;;;;;61.08;26.38;;;;;;;;;;5012716;28;20030;-55
2024/01/18 00:10:27;;;;;;;55.30;24.63;;;;;;;;;;5013526;28;20030;-57
2024/01/18 00:12:53;;;;;;;62.13;27.17;;;;;;;;;;5016887;28;20025;-53
2024/01/18 00:15:21;;;;;;;67.72;26.88;;;;;;;;;;5011254;28;20132;-56
2024/01/18 00:17:47;;;;;;;58.92;24.95;;;;;;;;;;5010168;28;20041;-54
2024/01/18 00:20:13;;;;;;;71.43;25.48;;;;;;;;;;5012795;28;20109;-55
2024/01/18 00:22:39;;;;;;;63.58;26.73;;;;;;;;;;5013785;28;20112;-56
2024/01/18 00:25:05;;;;;;;60.90;25.05;;;;;;;;;;5012475;28;20460;-56
2024/01/18 00:27:31;;;;;;;60.13;25.30;;;;;;;;;;5013624;28;20021;-55
2024/01/18 00:29:57;;;;;;;60.30;25.33;;;;;;;;;;5011083;28;20028;-57
2024/01/18 00:32:23;;;;;;;54.33;26.48;;;;;;;;;;5008573;28;20034;-56
2024/01/18 00:34:49;;;;;;;64.22;25.58;;;;;;;;;;5010531;28;20030;-57
2024/01/18 00:37:15;;;;;;;66.25;24.85;;;;;;;;;;5011542;28;20030;-56
2024/01/18 00:39:42;;;;;;;61.50;25.20;;;;;;;;;;5013874;28;20034;-53
2024/01/18 00:42:07;;;;;;;63.40;25.52;;;;;;;;;;5015361;28;20033;-54
2024/01/18 00:44:33;;;;;;;64.20;24.85;;;;;;;;;;5015893;28;20078;-53
2024/01/18 00:46:59;;;;;;;59.15;26.15;;;;;;;;;;5010720;28;20030;-55
2024/01/18 00:49:25;;;;;;;62.58;23.90;;;;;;;;;;5010780;28;20025;-56
2024/01/18 00:51:51;;;;;;;53.50;23.50;;;;;;;;;;5014345;28;20026;-53
2024/01/18 00:54:17;;;;;;;66.30;25.42;;;;;;;;;;5008313;28;20026;-55
2024/01/18 00:56:43;;;;;;;60.10;23.65;;;;;;;;;;5017773;28;20025;-54
2024/01/18 00:59:09;;;;;;;62.50;24.52;;;;;;;;;;5019950;28;20030;-54
2024/01/18 01:01:35;;;;;;;56.00;24.00;;;;;;;;;;5012083;28;20097;-56
2024/01/18 01:04:01;;;;;;;56.80;23.58;;;;;;;;;;5016035;28;20642;-55
2024/01/18 01:06:27;;;;;;;50.00;25.88;;;;;;;;;;5013733;28;20512;-56
2024/01/18 01:08:53;;;;;;;61.60;26.13;;;;;;;;;;5013863;28;20030;-54
2024/01/18 01:11:20;;;;;;;57.45;23.70;;;;;;;;;;5016468;28;20029;-57
2024/01/18 01:13:46;;;;;;;50.97;23.95;;;;;;;;;;5013428;28;20022;-53
2024/01/18 01:16:12;;;;;;;56.25;23.15;;;;;;;;;;5009940;28;20037;-54
2024/01/18 01:18:38;;;;;;;49.95;23.27;;;;;;;;;;5012476;28;20077;-56
2024/01/18 01:21:05;;;;;;;53.13;21.90;;;;;;;;;;5013799;28;20136;-57
2024/01/18 01:23:31;;;;;;;49.38;22.77;;;;;;;;;;5012941;28;20085;-54
2024/01/18 01:25:57;;;;;;;58.45;23.02;;;;;;;;;;5010309;28;20033;-56
2024/01/18 01:28:23;;;;;;;52.70;23.20;;;;;;;;;;5011795;28;20030;-55
2024/01/18 01:30:49;;;;;;;61.58;22.85;;;;;;;;;;5014268;28;20045;-56
2024/01/18 01:33:15;;;;;;;50.85;22.50;;;;;;;;;;5017715;28;20033;-53
2024/01/18 01:35:41;;;;;;;57.22;22.88;;;;;;;;;;5016283;28;20053;-56
2024/01/18 01:38:07;;;;;;;56.50;23.90;;;;;;;;;;5011855;28;20041;-57
2024/01/18 01:40:33;;;;;;;51.83;22.17;;;;;;;;;;5010503;28;20030;-57
2024/01/18 01:42:59;;;;;;;51.78;23.02;;;;;;;;;;5012773;28;20068;-56
2024/01/18 01:45:24;;;;;;;51.33;24.10;;;;;;;;;;5017052;28;20029;-55
2024/01/18 01:47:51;;;;;;;51.75;22.63;;;;;;;;;;5014593;28;20160;-57
2024/01/18 01:50:17;;;;;;;52.53;23.88;;;;;;;;;;5017199;28;20029;-55
2024/01/18 01:52:44;;;;;;;55.20;24.70;;;;;;;;;;5015178;28;20112;-55
2024/01/18 01:55:12;;;;;;;59.03;24.38;;;;;;;;;;5012470;28;20510;-55
2024/01/18 01:57:38;;;;;;;55.90;23.77;;;;;;;;;;5014287;28;20400;-54
2024/01/18 02:00:04;;;;;;;54.15;22.58;;;;;;;;;;5013356;28;20026;-54
2024/01/18 02:02:31;;;;;;;57.28;23.10;;;;;;;;;;5012706;28;20033;-54
2024/01/18 02:08:00;;;;;;;63.22;23.73;;;;;;;;;;5005370;28;20061;-57
2024/01/18 02:10:26;;;;;;;58.88;23.92;;;;;;;;;;5010590;28;20630;-55
2024/01/18 02:12:52;;;;;;;55.40;21.17;;;;;;;;;;5015926;28;20072;-55
2024/01/18 02:15:19;;;;;;;50.88;22.92;;;;;;;;;;5012698;28;20370;-55
2024/01/18 02:17:45;;;;;;;53.85;21.80;;;;;;;;;;5011449;28;20029;-57
2024/01/18 02:20:11;;;;;;;53.22;21.70;;;;;;;;;;5011211;28;20100;-57
2024/01/18 02:22:41;;;;;;;58.63;23.73;;;;;;;;;;5012662;28;20033;-55
2024/01/18 02:25:14;;;;;;;52.58;22.65;;;;;;;;;;5015367;28;20050;-57
2024/01/18 02:27:39;;;;;;;53.75;22.83;;;;;;;;;;5009688;28;20026;-53
2024/01/18 02:30:06;;;;;;;55.35;24.30;;;;;;;;;;5012317;28;20032;-57
2024/01/18 02:32:32;;;;;;;58.20;24.73;;;;;;;;;;5009251;28;20034;-57
2024/01/18 02:34:58;;;;;;;53.33;23.33;;;;;;;;;;5012481;28;20063;-58
2024/01/18 02:37:24;;;;;;;61.67;23.55;;;;;;;;;;5011552;28;20083;-58
2024/01/18 02:39:51;;;;;;;54.30;23.77;;;;;;;;;;5012269;28;20377;-57
2024/01/18 02:42:17;;;;;;;46.15;20.95;;;;;;;;;;5010732;28;20388;-55
2024/01/18 02:44:44;;;;;;;55.42;22.17;;;;;;;;;;5014711;28;20014;-54
2024/01/18 02:47:12;;;;;;;56.40;23.83;;;;;;;;;;5008548;28;20096;-56
2024/01/18 02:49:38;;;;;;;55.22;22.67;;;;;;;;;;5012392;28;20469;-56
2024/01/18 02:52:04;;;;;;;57.50;25.33;;;;;;;;;;5008699;28;20040;-51
2024/01/18 02:54:30;;;;;;;53.58;25.02;;;;;;;;;;5009138;28;20310;-57
2024/01/18 02:56:56;;;;;;;62.20;23.65;;;;;;;;;;5009420;28;20488;-56
2024/01/18 02:59:22;;;;;;;57.63;25.33;;;;;;;;;;5009642;28;20025;-54
2024/01/18 03:01:48;;;;;;;47.58;23.35;;;;;;;;;;5012771;28;20046;-54
2024/01/18 03:04:14;;;;;;;59.65;24.73;;;;;;;;;;5017229;28;20029;-54
2024/01/18 03:06:40;;;;;;;59.08;25.98;;;;;;;;;;5019183;28;20515;-54
2024/01/18 03:09:06;;;;;;;53.85;24.48;;;;;;;;;;5018013;28;20029;-53
2024/01/18 03:11:32;;;;;;;51.78;25.00;;;;;;;;;;5012979;28;20022;-53
2024/01/18 03:13:58;;;;;;;51.25;22.80;;;;;;;;;;5018590;28;20029;-55
2024/01/18 03:16:24;;;;;;;48.60;23.50;;;;;;;;;;5012720;28;20084;-57
2024/01/18 03:18:50;;;;;;;51.78;24.40;;;;;;;;;;5020023;28;20060;-55
2024/01/18 03:21:15;;;;;;;58.70;24.65;;;;;;;;;;5016666;28;20036;-55
2024/01/18 03:23:41;;;;;;;54.15;23.60;;;;;;;;;;5018279;28;20060;-55
2024/01/18 03:26:08;;;;;;;59.40;26.17;;;;;;;;;;5018859;28;20033;-55
2024/01/18 03:28:34;;;;;;;61.83;25.00;;;;;;;;;;5020390;28;20029;-54
2024/01/18 03:31:00;;;;;;;52.92;23.67;;;;;;;;;;5014389;28;20029;-53
2024/01/18 03:33:26;;;;;;;48.97;24.27;;;;;;;;;;5016494;28;20030;-52
2024/01/18 03:35:52;;;;;;;60.55;25.13;;;;;;;;;;5015966;28;20129;-56
2024/01/18 03:38:18;;;;;;;58.70;27.00;;;;;;;;;;5015293;28;20046;-54
2024/01/18 03:40:44;;;;;;;56.33;24.88;;;;;;;;;;5013934;28;20037;-52
2024/01/18 03:43:10;;;;;;;60.53;26.27;;;;;;;;;;5020269;28;20029;-51
2024/01/18 03:45:35;;;;;;;58.38;24.80;;;;;;;;;;5015614;28;20041;-55
2024/01/18 03:48:02;;;;;;;59.25;26.00;;;;;;;;;;5025180;28;20021;-56
2024/01/18 03:50:28;;;;;;;59.92;27.10;;;;;;;;;;5015628;28;20033;-56
2024/01/18 03:52:54;;;;;;;58.28;25.50;;;;;;;;;;5016807;28;20034;-56
2024/01/18 03:55:20;;;;;;;64.07;26.40;;;;;;;;;;5014602;28;20033;-55
2024/01/18 03:57:46;;;;;;;69.00;29.42;;;;;;;;;;5018826;28;20065;-55
2024/01/18 04:00:15;;;;;;;63.17;27.88;;;;;;;;;;5016881;28;20625;-54
2024/01/18 04:02:42;;;;;;;56.75;25.25;;;;;;;;;;5017918;28;20029;-53
2024/01/18 04:05:08;;;;;;;54.58;25.65;;;;;;;;;;5010313;28;20482;-56
2024/01/18 04:07:35;;;;;;;60.38;25.58;;;;;;;;;;5013074;28;20056;-55
2024/01/18 04:10:02;;;;;;;58.28;25.88;;;;;;;;;;5015254;28;20036;-54
2024/01/18 04:12:28;;;;;;;52.33;27.23;;;;;;;;;;5012609;28;20488;-55
2024/01/18 04:14:53;;;;;;;55.95;25.38;;;;;;;;;;5017181;28;20080;-55
2024/01/18 04:17:19;;;;;;;51.58;25.17;;;;;;;;;;5015381;28;20040;-53
2024/01/18 04:19:45;;;;;;;58.90;27.15;;;;;;;;;;5021695;28;20049;-54
2024/01/18 04:22:11;;;;;;;59.20;26.50;;;;;;;;;;5012870;28;20562;-56
2024/01/18 04:24:37;;;;;;;56.85;27.25;;;;;;;;;;5021072;28;20026;-55
2024/01/18 04:27:03;;;;;;;62.30;27.15;;;;;;;;;;5015674;28;20022;-57
2024/01/18 04:29:30;;;;;;;63.50;27.63;;;;;;;;;;5019126;28;20030;-52
2024/01/18 04:31:56;;;;;;;60.55;26.80;;;;;;;;;;5015463;28;20057;-57
2024/01/18 04:34:22;;;;;;;65.03;28.75;;;;;;;;;;5011872;28;20068;-56
2024/01/18 04:36:47;;;;;;;85.55;31.02;;;;;;;;;;5014998;28;20095;-55
2024/01/18 04:39:14;;;;;;;68.00;29.25;;;;;;;;;;5019014;28;20124;-54
2024/01/18 04:41:40;;;;;;;65.07;29.20;;;;;;;;;;5010577;28;20113;-54
2024/01/18 04:44:06;;;;;;;71.40;29.65;;;;;;;;;;5019640;28;20092;-53
2024/01/18 04:46:32;;;;;;;64.63;29.92;;;;;;;;;;5014237;28;20743;-52
2024/01/18 04:48:58;;;;;;;60.15;30.75;;;;;;;;;;5017861;28;20040;-53
2024/01/18 04:51:24;;;;;;;62.83;32.40;;;;;;;;;;5010735;28;20026;-58
2024/01/18 04:53:50;;;;;;;65.35;30.25;;;;;;;;;;5016334;28;20037;-54
2024/01/18 04:56:16;;;;;;;68.18;32.05;;;;;;;;;;5011653;28;20084;-55
2024/01/18 04:58:42;;;;;;;72.40;31.90;;;;;;;;;;5019812;28;20065;-53
2024/01/18 05:01:08;;;;;;;69.55;32.25;;;;;;;;;;5012241;28;20485;-56
2024/01/18 05:03:34;;;;;;;75.45;32.40;;;;;;;;;;5020025;28;20032;-54
2024/01/18 05:06:00;;;;;;;76.10;33.85;;;;;;;;;;5014621;28;20075;-52
2024/01/18 05:08:26;;;;;;;71.32;32.95;;;;;;;;;;5017994;28;20104;-55
2024/01/18 05:10:53;;;;;;;71.30;30.48;;;;;;;;;;5008779;28;20168;-55
2024/01/18 05:13:20;;;;;;;78.18;33.63;;;;;;;;;;5015799;28;20030;-54
2024/01/18 05:15:46;;;;;;;74.88;33.25;;;;;;;;;;5014252;28;20512;-55
2024/01/18 05:18:13;;;;;;;67.80;31.67;;;;;;;;;;5019567;28;20038;-56
2024/01/18 05:20:39;;;;;;;73.72;33.60;;;;;;;;;;5016113;28;20022;-56
2024/01/18 05:23:06;;;;;;;70.35;33.92;;;;;;;;;;5012918;28;20033;-54
2024/01/18 05:25:32;;;;;;;80.85;34.40;;;;;;;;;;5014636;28;20034;-56
2024/01/18 05:28:00;;;;;;;81.88;36.58;;;;;;;;;;5016292;28;20033;-56
2024/01/18 05:30:26;;;;;;;76.30;35.15;;;;;;;;;;5008442;28;20037;-53
2024/01/18 05:32:52;;;;;;;73.60;33.05;;;;;;;;;;5013734;28;20042;-54
2024/01/18 05:35:18;;;;;;;81.90;34.25;;;;;;;;;;5023119;28;20029;-54
2024/01/18 05:37:44;;;;;;;75.43;32.95;;;;;;;;;;5018796;28;20029;-55
2024/01/18 05:40:10;;;;;;;73.43;33.72;;;;;;;;;;5014702;28;20130;-60
2024/01/18 05:42:36;;;;;;;78.30;35.33;;;;;;;;;;5012478;28;20018;-57
2024/01/18 05:45:01;;;;;;;73.65;34.85;;;;;;;;;;5012644;28;20487;-57
2024/01/18 05:47:27;;;;;;;70.32;34.05;;;;;;;;;;5014041;28;20080;-56
2024/01/18 05:49:53;;;;;;;82.70;34.63;;;;;;;;;;5015411;28;20083;-56
2024/01/18 05:52:19;;;;;;;69.80;35.13;;;;;;;;;;5012038;28;20026;-54
2024/01/18 05:54:45;;;;;;;77.72;34.80;;;;;;;;;;5016621;28;20032;-54
2024/01/18 05:57:11;;;;;;;71.05;34.40;;;;;;;;;;5011690;28;20075;-55
2024/01/18 05:59:37;;;;;;;67.35;32.22;;;;;;;;;;5016920;28;20032;-54
2024/01/18 06:02:03;;;;;;;69.25;32.72;;;;;;;;;;5011102;28;20080;-52
2024/01/18 06:04:30;;;;;;;73.35;34.97;;;;;;;;;;5011811;28;20419;-54
2024/01/18 06:06:56;;;;;;;78.10;33.90;;;;;;;;;;5015365;28;20033;-53
2024/01/18 06:09:22;;;;;;;77.15;36.42;;;;;;;;;;5014065;28;20149;-53
2024/01/18 06:11:49;;;;;;;81.80;35.42;;;;;;;;;;5011791;28;20030;-57
2024/01/18 06:14:15;;;;;;;72.13;35.65;;;;;;;;;;5016243;28;20044;-55
2024/01/18 06:16:41;;;;;;;75.40;35.35;;;;;;;;;;5011927;28;20033;-55
2024/01/18 06:19:07;;;;;;;77.82;35.28;;;;;;;;;;5015005;28;20026;-55
2024/01/18 06:21:33;;;;;;;69.15;33.53;;;;;;;;;;5018003;28;20025;-55
2024/01/18 06:23:59;;;;;;;78.05;37.85;;;;;;;;;;5023428;28;20053;-55
2024/01/18 06:26:26;;;;;;;74.85;37.30;;;;;;;;;;5011197;28;20033;-56
2024/01/18 06:28:51;;;;;;;78.25;34.90;;;;;;;;;;5018690;28;20025;-52
2024/01/18 06:31:19;;;;;;;71.55;34.53;;;;;;;;;;5017268;28;20030;-55
2024/01/18 06:33:45;;;;;;;80.50;35.75;;;;;;;;;;5016183;28;20104;-55
2024/01/18 06:36:12;;;;;;;85.50;36.05;;;;;;;;;;5016035;28;20039;-53
2024/01/18 06:38:38;;;;;;;83.25;38.40;;;;;;;;;;5013989;28;20052;-53
2024/01/18 06:41:04;;;;;;;83.13;36.17;;;;;;;;;;5010467;28;20527;-54
2024/01/18 06:43:30;;;;;;;83.78;36.03;;;;;;;;;;5011910;28;20737;-53
2024/01/18 06:45:56;;;;;;;74.93;36.20;;;;;;;;;;5008042;28;20112;-57
2024/01/18 06:48:23;;;;;;;83.30;36.75;;;;;;;;;;5016267;28;20391;-53
2024/01/18 06:50:49;;;;;;;83.38;36.80;;;;;;;;;;5013213;28;20026;-54
2024/01/18 06:53:15;;;;;;;80.10;37.33;;;;;;;;;;5010322;28;20088;-52
2024/01/18 06:55:41;;;;;;;87.47;38.08;;;;;;;;;;5012093;28;20156;-53
2024/01/18 06:58:07;;;;;;;75.50;36.05;;;;;;;;;;5016237;28;20026;-52
2024/01/18 07:00:33;;;;;;;78.03;36.80;;;;;;;;;;5009615;28;20111;-54
2024/01/18 07:02:59;;;;;;;68.80;35.47;;;;;;;;;;5016433;28;20109;-56
2024/01/18 07:05:25;;;;;;;87.03;36.72;;;;;;;;;;5012106;28;20093;-55
2024/01/18 07:07:51;;;;;;;86.25;37.78;;;;;;;;;;5013706;28;20017;-53
2024/01/18 07:10:17;;;;;;;72.53;36.08;;;;;;;;;;5014183;28;20087;-54
2024/01/18 07:12:44;;;;;;;66.85;35.60;;;;;;;;;;5007085;28;20056;-55
2024/01/18 07:15:10;;;;;;;75.03;35.45;;;;;;;;;;5011292;28;20380;-53
2024/01/18 07:17:36;;;;;;;78.88;36.38;;;;;;;;;;5005652;28;20034;-55
2024/01/18 07:20:02;;;;;;;71.68;35.00;;;;;;;;;;5015566;28;20087;-53
2024/01/18 07:22:28;;;;;;;73.63;35.03;;;;;;;;;;5005674;28;20615;-53
2024/01/18 07:24:54;;;;;;;70.97;34.13;;;;;;;;;;5006831;28;20031;-55
2024/01/18 07:27:20;;;;;;;82.85;36.30;;;;;;;;;;5008408;28;20126;-55
2024/01/18 07:29:49;;;;;;;71.68;34.80;;;;;;;;;;5010057;28;20041;-54
2024/01/18 07:32:15;;;;;;;75.85;33.60;;;;;;;;;;5006551;28;20117;-56
2024/01/18 07:34:41;;;;;;;71.60;31.92;;;;;;;;;;5006758;28;20033;-53
2024/01/18 07:37:08;;;;;;;75.35;35.92;;;;;;;;;;5002008;28;20030;-55
2024/01/18 07:39:34;;;;;;;79.55;34.72;;;;;;;;;;5001043;28;20065;-55
2024/01/18 07:42:00;;;;;;;82.93;34.55;;;;;;;;;;5010672;28;20076;-53
2024/01/18 07:44:27;;;;;;;68.90;34.53;;;;;;;;;;5012515;28;20038;-54
2024/01/18 07:46:53;;;;;;;69.47;32.47;;;;;;;;;;5010176;28;20053;-54
2024/01/18 07:49:20;;;;;;;72.20;33.20;;;;;;;;;;5014963;28;20021;-55
2024/01/18 07:51:46;;;;;;;75.20;34.10;;;;;;;;;;5009935;28;20125;-56
2024/01/18 07:54:13;;;;;;;81.03;34.40;;;;;;;;;;5015223;28;20561;-55
2024/01/18 07:56:39;;;;;;;72.20;33.95;;;;;;;;;;5008364;28;20022;-54
2024/01/18 07:59:05;;;;;;;66.80;32.22;;;;;;;;;;5014300;28;20060;-54
2024/01/18 08:01:31;;;;;;;70.75;32.33;;;;;;;;;;5007295;28;20038;-55
2024/01/18 08:03:57;;;;;;;79.72;32.92;;;;;;;;;;5014626;28;20123;-53
2024/01/18 08:06:23;;;;;;;75.20;33.15;;;;;;;;;;5010428;28;20057;-54
2024/01/18 08:08:49;;;;;;;72.80;33.75;;;;;;;;;;5019190;28;20037;-56
2024/01/18 08:11:15;;;;;;;66.80;32.03;;;;;;;;;;5009994;28;20042;-55
2024/01/18 08:13:41;;;;;;;73.40;32.97;;;;;;;;;;5015630;28;20062;-54
2024/01/18 08:16:08;;;;;;;80.03;35.53;;;;;;;;;;5014065;28;20088;-55
2024/01/18 08:18:35;;;;;;;66.75;34.17;;;;;;;;;;5009737;28;20030;-54
2024/01/18 08:21:01;;;;;;;67.32;33.63;;;;;;;;;;5005214;28;20018;-52
2024/01/18 08:23:27;;;;;;;65.30;32.20;;;;;;;;;;5006078;28;20105;-58
2024/01/18 08:25:53;;;;;;;70.82;34.40;;;;;;;;;;5009736;28;20030;-54
2024/01/18 08:28:19;;;;;;;64.88;32.53;;;;;;;;;;5012769;28;20030;-54
2024/01/18 08:30:45;;;;;;;74.97;35.97;;;;;;;;;;5014279;28;20056;-52
2024/01/18 08:33:11;;;;;;;68.57;34.10;;;;;;;;;;5006571;28;20030;-53
2024/01/18 08:35:37;;;;;;;84.80;36.45;;;;;;;;;;5004494;28;20034;-56
2024/01/18 08:38:03;;;;;;;75.82;35.85;;;;;;;;;;5008741;28;20030;-56
2024/01/18 08:40:29;;;;;;;81.75;34.90;;;;;;;;;;5004729;28;20029;-51
2024/01/18 08:42:56;;;;;;;80.50;34.35;;;;;;;;;;5013896;28;20078;-56
2024/01/18 08:45:22;;;;;;;67.35;33.67;;;;;;;;;;5010121;28;20396;-56
2024/01/18 08:47:48;;;;;;;74.95;34.53;;;;;;;;;;5013506;28;20034;-53
2024/01/18 08:50:15;;;;;;;72.00;35.42;;;;;;;;;;5022049;28;20044;-52
2024/01/18 08:52:41;;;;;;;75.97;35.17;;;;;;;;;;5015159;28;20053;-52
2024/01/18 08:55:07;;;;;;;79.13;35.53;;;;;;;;;;5018561;28;20480;-55
2024/01/18 08:57:33;;;;;;;81.68;36.40;;;;;;;;;;5015942;28;20491;-53
2024/01/18 08:59:59;;;;;;;78.60;37.20;;;;;;;;;;5016565;28;20045;-56
2024/01/18 09:02:25;;;;;;;80.03;35.58;;;;;;;;;;5011807;28;20034;-55
2024/01/18 09:04:51;;;;;;;79.88;35.50;;;;;;;;;;5015260;28;20372;-56
2024/01/18 09:07:17;;;;;;;76.32;36.78;;;;;;;;;;5013390;28;20025;-55
2024/01/18 09:09:44;;;;;;;86.00;36.97;;;;;;;;;;5018666;28;20096;-54
2024/01/18 09:12:10;;;;;;;76.13;35.90;;;;;;;;;;5009892;28;20038;-53
2024/01/18 09:14:36;;;;;;;72.38;34.42;;;;;;;;;;5008326;28;20022;-55
2024/01/18 09:17:02;;;;;;;85.13;39.08;;;;;;;;;;5007758;28;20041;-57
2024/01/18 09:19:30;;;;;;;79.18;36.72;;;;;;;;;;5009507;28;20037;-60
2024/01/18 09:21:56;;;;;;;80.45;35.28;;;;;;;;;;5012006;28;20427;-57
2024/01/18 09:24:23;;;;;;;85.15;38.20;;;;;;;;;;5011918;28;20056;-54
2024/01/18 09:26:48;;;;;;;80.45;37.95;;;;;;;;;;5010504;28;20021;-55
2024/01/18 09:29:14;;;;;;;90.60;36.60;;;;;;;;;;5006910;28;20420;-53
2024/01/18 09:31:40;;;;;;;80.72;36.03;;;;;;;;;;5007510;28;20034;-53
2024/01/18 09:34:06;;;;;;;85.30;36.53;;;;;;;;;;5010139;28;20044;-59
2024/01/18 09:36:32;;;;;;;81.20;36.15;;;;;;;;;;5008528;28;20038;-53
2024/01/18 09:38:58;;;;;;;80.32;36.80;;;;;;;;;;5010892;28;20071;-54
2024/01/18 09:41:29;;;;;;;83.15;34.33;;;;;;;;;;5008391;28;20030;-55
2024/01/18 09:43:59;;;;;;;77.30;37.08;;;;;;;;;;5004251;28;20028;-58
2024/01/18 09:46:27;;;;;;;74.10;35.20;;;;;;;;;;5004921;28;20450;-56
2024/01/18 09:48:53;;;;;;;84.25;37.13;;;;;;;;;;5013838;28;20108;-54
2024/01/18 09:51:21;;;;;;;79.70;35.88;;;;;;;;;;5020763;28;20058;-58
2024/01/18 09:53:54;;;;;;;77.78;35.90;;;;;;;;;;5017752;28;20396;-56
2024/01/18 09:56:24;;;;;;;72.03;34.20;;;;;;;;;;5010455;28;20033;-52
2024/01/18 09:58:50;;;;;;;85.10;37.10;;;;;;;;;;5010811;28;20018;-55
2024/01/18 10:01:19;;;;;;;81.22;37.55;;;;;;;;;;5005600;28;20101;-55
2024/01/18 10:03:45;;;;;;;78.13;35.08;;;;;;;;;;5013988;28;20030;-55
2024/01/18 10:06:12;;;;;;;72.82;33.20;;;;;;;;;;5009360;28;20033;-56
2024/01/18 10:08:38;;;;;;;83.45;38.08;;;;;;;;;;5005782;28;20017;-54
2024/01/18 10:11:05;;;;;;;76.93;35.28;;;;;;;;;;5007992;28;20044;-55
2024/01/18 10:13:47;;;;;;;82.15;37.00;;;;;;;;;;5007706;28;20022;-55
2024/01/18 10:16:26;;;;;;;71.43;35.20;;;;;;;;;;5003306;28;20034;-52
2024/01/18 10:18:52;;;;;;;73.65;34.53;;;;;;;;;;5022496;28;20045;-57
2024/01/18 10:21:18;;;;;;;79.82;35.33;;;;;;;;;;5007636;28;20034;-54
2024/01/18 10:23:44;;;;;;;74.38;35.70;;;;;;;;;;5007624;28;20025;-55
2024/01/18 10:26:10;;;;;;;77.60;36.13;;;;;;;;;;5007591;28;20435;-55
2024/01/18 10:28:36;;;;;;;70.93;34.22;;;;;;;;;;5007929;28;20038;-58
2024/01/18 10:31:02;;;;;;;76.30;33.65;;;;;;;;;;5008446;28;20104;-57
2024/01/18 10:33:29;;;;;;;77.68;34.05;;;;;;;;;;5007946;28;20480;-57
2024/01/18 10:35:55;;;;;;;78.72;33.20;;;;;;;;;;5012798;28;20026;-50
2024/01/18 10:38:32;;;;;;;77.38;35.28;;;;;;;;;;5008859;28;20079;-55
2024/01/18 10:40:59;;;;;;;68.60;32.97;;;;;;;;;;5013940;28;20456;-53
2024/01/18 10:43:28;;;;;;;68.97;33.10;;;;;;;;;;5014693;28;20014;-54
2024/01/18 10:45:54;;;;;;;79.47;34.47;;;;;;;;;;5012131;28;20057;-54
2024/01/18 10:48:20;;;;;;;74.20;33.78;;;;;;;;;;5013839;28;20068;-56
2024/01/18 10:50:47;;;;;;;71.63;34.13;;;;;;;;;;5014567;28;20061;-56
2024/01/18 10:53:14;;;;;;;71.43;33.53;;;;;;;;;;5011485;28;20056;-56
2024/01/18 10:55:40;;;;;;;74.70;32.83;;;;;;;;;;5010686;28;20060;-55
2024/01/18 10:58:08;;;;;;;70.70;32.50;;;;;;;;;;5006616;28;20427;-54
2024/01/18 11:00:34;;;;;;;72.55;31.10;;;;;;;;;;5013942;28;20026;-54
2024/01/18 11:03:00;;;;;;;74.80;32.03;;;;;;;;;;5006987;28;20017;-55
2024/01/18 11:05:27;;;;;;;61.58;30.67;;;;;;;;;;5011006;28;20592;-58
2024/01/18 11:07:53;;;;;;;65.75;31.58;;;;;;;;;;5010704;28;20125;-52
2024/01/18 11:10:20;;;;;;;69.50;32.40;;;;;;;;;;5016285;28;20065;-56
2024/01/18 11:12:49;;;;;;;66.05;33.10;;;;;;;;;;5010090;28;20436;-53
2024/01/18 11:15:15;;;;;;;71.35;33.30;;;;;;;;;;5008902;28;20064;-54
2024/01/18 11:17:48;;;;;;;58.92;28.80;;;;;;;;;;5004709;28;20040;-55
2024/01/18 11:20:14;;;;;;;59.85;30.45;;;;;;;;;;5010919;28;20053;-53
2024/01/18 11:22:40;;;;;;;64.65;31.95;;;;;;;;;;5010541;28;20026;-52
2024/01/18 11:25:08;;;;;;;59.75;29.08;;;;;;;;;;5018689;28;20080;-55
2024/01/18 11:27:36;;;;;;;63.60;29.63;;;;;;;;;;5012384;28;20029;-54
2024/01/18 11:30:03;;;;;;;65.95;28.92;;;;;;;;;;5008650;28;20030;-56
2024/01/18 11:32:29;;;;;;;59.25;28.40;;;;;;;;;;5014559;28;20100;-54
2024/01/18 11:35:15;;;;;;;56.17;27.40;;;;;;;;;;5018183;28;20104;-55
2024/01/18 11:37:41;;;;;;;64.43;26.35;;;;;;;;;;5013552;28;20029;-55
2024/01/18 11:40:09;;;;;;;61.05;27.58;;;;;;;;;;5008311;28;20021;-55
2024/01/18 11:42:35;;;;;;;55.40;27.55;;;;;;;;;;5008174;28;20079;-53
2024/01/18 11:45:03;;;;;;;64.75;28.90;;;;;;;;;;5009846;28;20064;-54
2024/01/18 11:47:30;;;;;;;61.45;29.08;;;;;;;;;;5012049;28;20021;-52
2024/01/18 11:49:57;;;;;;;52.10;27.05;;;;;;;;;;5012626;28;20029;-56
2024/01/18 11:52:23;;;;;;;64.97;26.52;;;;;;;;;;5012427;28;20033;-53
2024/01/18 11:54:55;;;;;;;59.88;27.98;;;;;;;;;;5012254;28;20092;-54
2024/01/18 11:57:22;;;;;;;55.03;27.05;;;;;;;;;;5010862;28;20018;-54
2024/01/18 11:59:48;;;;;;;61.20;26.85;;;;;;;;;;5009487;28;20057;-52
2024/01/18 12:02:14;;;;;;;53.47;27.52;;;;;;;;;;5009390;28;20155;-53
2024/01/18 12:04:41;;;;;;;59.63;27.52;;;;;;;;;;5013587;28;20087;-57
2024/01/18 12:07:07;;;;;;;54.13;26.55;;;;;;;;;;5024992;28;20083;-56
2024/01/18 12:09:34;;;;;;;52.67;25.92;;;;;;;;;;5013791;28;20679;-55
2024/01/18 12:12:00;;;;;;;49.13;24.77;;;;;;;;;;5012263;28;20045;-53
2024/01/18 12:14:26;;;;;;;50.00;24.80;;;;;;;;;;5013874;28;20113;-54
2024/01/18 12:16:53;;;;;;;52.80;25.55;;;;;;;;;;5009651;28;20548;-53
2024/01/18 12:19:31;;;;;;;55.88;24.13;;;;;;;;;;5011054;28;20100;-55
2024/01/18 12:21:57;;;;;;;47.92;23.17;;;;;;;;;;5015102;28;20492;-55
2024/01/18 12:24:23;;;;;;;48.65;21.85;;;;;;;;;;5010971;28;20022;-55
2024/01/18 12:26:49;;;;;;;37.15;20.10;;;;;;;;;;5016580;28;20026;-55
2024/01/18 12:29:15;;;;;;;37.58;17.15;;;;;;;;;;5006650;28;20025;-53
2024/01/18 12:31:45;;;;;;;34.38;18.33;;;;;;;;;;5008598;28;20392;-51
2024/01/18 12:34:11;;;;;;;37.63;17.50;;;;;;;;;;5010221;28;20060;-51
2024/01/18 12:36:38;;;;;;;34.47;16.05;;;;;;;;;;5013424;28;20453;-56
2024/01/18 12:39:04;;;;;;;39.92;15.02;;;;;;;;;;5016036;28;20374;-51
2024/01/18 12:41:30;;;;;;;29.25;14.70;;;;;;;;;;5010792;28;20481;-54
2024/01/18 12:44:03;;;;;;;28.08;15.10;;;;;;;;;;5017897;28;20025;-51
2024/01/18 12:46:29;;;;;;;32.80;14.07;;;;;;;;;;5006317;28;20396;-54
2024/01/18 12:48:55;;;;;;;35.20;13.23;;;;;;;;;;5020080;28;20034;-54
2024/01/18 12:51:22;;;;;;;27.45;12.73;;;;;;;;;;5010389;28;20025;-55
2024/01/18 12:53:48;;;;;;;34.10;13.13;;;;;;;;;;5009050;28;20029;-53
2024/01/18 12:56:17;;;;;;;29.17;13.55;;;;;;;;;;5008789;28;20117;-57
2024/01/18 12:58:43;;;;;;;28.70;12.77;;;;;;;;;;5013043;28;20034;-54
2024/01/18 13:01:09;;;;;;;28.25;12.85;;;;;;;;;;5010411;28;20036;-52
2024/01/18 13:03:35;;;;;;;25.80;12.63;;;;;;;;;;5008035;28;20034;-55
2024/01/18 13:06:02;;;;;;;28.30;14.02;;;;;;;;;;5011475;28;20044;-53
2024/01/18 13:08:28;;;;;;;24.23;13.27;;;;;;;;;;5010357;28;20040;-55
2024/01/18 13:10:54;;;;;;;24.08;12.57;;;;;;;;;;5006000;28;20117;-55
2024/01/18 13:13:20;;;;;;;30.48;12.35;;;;;;;;;;5008525;28;20029;-54
2024/01/18 13:15:46;;;;;;;28.17;11.43;;;;;;;;;;5026849;28;20458;-55
2024/01/18 13:18:12;;;;;;;22.80;10.50;;;;;;;;;;5009905;28;20050;-53
2024/01/18 13:20:39;;;;;;;29.52;14.15;;;;;;;;;;5007970;28;20054;-56
2024/01/18 13:23:05;;;;;;;30.42;13.40;;;;;;;;;;5009242;28;20046;-55
2024/01/18 13:25:31;;;;;;;30.83;14.45;;;;;;;;;;5008195;28;20056;-57
2024/01/18 13:27:57;;;;;;;40.60;17.48;;;;;;;;;;5004232;28;20128;-58
2024/01/18 13:30:23;;;;;;;38.08;17.30;;;;;;;;;;5006476;28;20037;-52
2024/01/18 13:32:50;;;;;;;49.15;20.13;;;;;;;;;;5010413;28;20109;-53
2024/01/18 13:35:16;;;;;;;36.30;18.27;;;;;;;;;;5010760;28;20026;-58
2024/01/18 13:37:42;;;;;;;40.08;18.67;;;;;;;;;;5010369;28;20022;-55
2024/01/18 13:40:08;;;;;;;36.65;18.02;;;;;;;;;;5011315;28;20032;-55
2024/01/18 13:42:35;;;;;;;39.05;21.35;;;;;;;;;;5011163;28;20415;-53
2024/01/18 13:45:02;;;;;;;37.88;18.75;;;;;;;;;;5007606;28;20029;-52
2024/01/18 13:47:27;;;;;;;35.70;20.10;;;;;;;;;;5008887;28;20046;-55
2024/01/18 13:49:53;;;;;;;39.88;18.88;;;;;;;;;;5011742;28;20053;-56
2024/01/18 13:52:20;;;;;;;35.53;18.45;;;;;;;;;;5008652;28;20033;-54
2024/01/18 13:54:46;;;;;;;38.20;19.92;;;;;;;;;;5006018;28;20021;-55
2024/01/18 13:57:13;;;;;;;37.10;19.70;;;;;;;;;;5012091;28;20562;-54
2024/01/18 13:59:39;;;;;;;38.25;19.38;;;;;;;;;;5007165;28;20478;-59
2024/01/18 14:02:05;;;;;;;42.05;20.38;;;;;;;;;;5007592;28;20117;-57
2024/01/18 14:04:31;;;;;;;35.50;18.80;;;;;;;;;;5017553;28;20633;-57
2024/01/18 14:06:57;;;;;;;48.90;22.38;;;;;;;;;;5012689;28;20033;-57
2024/01/18 14:09:23;;;;;;;36.35;19.27;;;;;;;;;;5008436;28;20018;-58
2024/01/18 14:11:49;;;;;;;38.55;19.48;;;;;;;;;;5012978;28;20032;-53
2024/01/18 14:14:15;;;;;;;36.72;19.20;;;;;;;;;;5005071;28;20034;-55